Elgin, Oregon
Current Conditions -  °F | °C
As of 5:35 PM on Tuesday 25 Nov 2014 (Local Time) from KLGD Reporting Station
Overcast Overcast  
Wind Chill: 52°   Ceiling: 3900
Heat Index: 52°   Visibility: 10mi
Dew Point: 43°   Wind: 7mph
Humidity: 71%   Direction: 30°NNE
Pressure: 30.19"   Gusts: NA
Location:  45.56°N, 117.92°W
Report Text: KLGD 260135Z AUTO 03006KT 10SM BKN039 BKN046 OVC050 11/06 A3019 RMK AO1 P0001
Loading
Personal Weather Stations






























Interactive Weather Map New forecast layout! Learn more

10-Day Weather Forecast

Advertisements
Track Severe Weather on mobile